createdAt,value
2022-12-29T00:02:01.137Z,99866.75
2022-12-29T00:04:27.820Z,99867.53
2022-12-29T00:06:55.284Z,99861.34
2022-12-29T00:09:22.168Z,99857.81
2022-12-29T00:11:49.350Z,99856.03
2022-12-29T00:14:34.677Z,99866.56
2022-12-29T00:17:01.891Z,99854.47
2022-12-29T00:19:47.291Z,99849.06
2022-12-29T00:22:34.591Z,99850.94
2022-12-29T00:25:10.160Z,99842.97
2022-12-29T00:27:55.677Z,99838.59
2022-12-29T00:30:42.561Z,99841.13
2022-12-29T00:33:35.592Z,99828.09
2022-12-29T00:36:03.870Z,99832.31
2022-12-29T00:38:51.227Z,99835.94
2022-12-29T00:41:36.648Z,99836.78
2022-12-29T00:44:06.095Z,99838.59
2022-12-29T00:46:40.244Z,99826.09
2022-12-29T00:49:27.217Z,99825.28
2022-12-29T00:51:54.373Z,99818.16
2022-12-29T00:54:21.222Z,99820.97
2022-12-29T00:56:49.588Z,99821.81
2022-12-29T00:59:16.568Z,99807.69
2022-12-29T01:01:45.392Z,99814.78
2022-12-29T01:04:12.268Z,99812.03
2022-12-29T01:06:40.885Z,99806.94
2022-12-29T01:09:26.729Z,99810.28
2022-12-29T01:11:53.541Z,99811.19
2022-12-29T01:14:20.482Z,99804.19
2022-12-29T01:16:47.624Z,99805.06
2022-12-29T01:19:17.330Z,99806.81
2022-12-29T01:21:45.335Z,99799.75
2022-12-29T01:24:12.121Z,99797.09
2022-12-29T01:26:38.792Z,99798.84
2022-12-29T01:29:05.521Z,99805.00
2022-12-29T01:31:32.604Z,99797.06
2022-12-29T01:33:59.200Z,99796.16
2022-12-29T01:36:26.311Z,99790.00
2022-12-29T01:38:52.921Z,99794.31
2022-12-29T01:41:19.677Z,99790.91
2022-12-29T01:43:55.360Z,99786.50
2022-12-29T01:46:35.870Z,99785.72
2022-12-29T01:49:14.690Z,99777.75
2022-12-29T01:51:56.335Z,99782.91
2022-12-29T01:54:26.835Z,99783.88
2022-12-29T01:56:56.224Z,99784.78
2022-12-29T01:59:27.885Z,99768.91
2022-12-29T02:01:55.216Z,99775.91
2022-12-29T02:04:23.412Z,99776.75
2022-12-29T02:07:03.067Z,99775.97
2022-12-29T02:09:29.859Z,99777.78
2022-12-29T02:11:57.888Z,99768.97
2022-12-29T02:14:24.708Z,99768.91
2022-12-29T02:17:33.886Z,99767.16
2022-12-29T02:20:20.428Z,99760.19
2022-12-29T02:23:16.363Z,99755.75
2022-12-29T02:25:50.323Z,99754.91
2022-12-29T02:28:37.540Z,99753.22
2022-12-29T02:31:29.488Z,99750.53
2022-12-29T02:34:17.882Z,99753.28
2022-12-29T02:37:02.173Z,99747.09
2022-12-29T02:39:40.045Z,99732.28
2022-12-29T02:42:15.463Z,99731.38
2022-12-29T02:45:05.478Z,99730.50
2022-12-29T02:47:47.335Z,99725.94
2022-12-29T02:50:24.764Z,99720.78
2022-12-29T02:52:59.014Z,99734.72
2022-12-29T02:55:26.332Z,99725.91
2022-12-29T02:58:17.022Z,99734.72
2022-12-29T03:00:56.056Z,99724.97
2022-12-29T03:04:00.133Z,99733.09
2022-12-29T03:06:53.024Z,99731.28
2022-12-29T03:09:22.581Z,99725.19
2022-12-29T03:12:10.730Z,99717.22
2022-12-29T03:15:01.665Z,99717.31
2022-12-29T03:17:39.222Z,99709.47
2022-12-29T03:20:09.256Z,99697.22
2022-12-29T03:22:40.979Z,99710.22
2022-12-29T03:25:11.664Z,99705.78
2022-12-29T03:28:05.090Z,99699.63
2022-12-29T03:30:33.691Z,99700.38
2022-12-29T03:33:03.439Z,99689.81
2022-12-29T03:35:32.382Z,99686.44
2022-12-29T03:38:12.029Z,99690.94
2022-12-29T03:40:41.949Z,99690.03
2022-12-29T03:43:08.927Z,99681.25
2022-12-29T03:45:38.591Z,99678.63
2022-12-29T03:48:05.753Z,99677.81
2022-12-29T03:50:32.441Z,99669.94
2022-12-29T03:53:01.239Z,99666.44
2022-12-29T03:55:30.721Z,99674.25
2022-12-29T03:57:57.898Z,99680.47
2022-12-29T04:00:24.532Z,99679.50
2022-12-29T04:02:51.381Z,99689.91
2022-12-29T04:05:18.212Z,99684.53
2022-12-29T04:07:45.064Z,99682.91
2022-12-29T04:10:13.637Z,99686.19
2022-12-29T04:12:43.057Z,99680.16
2022-12-29T04:15:10.611Z,99676.72
2022-12-29T04:17:37.329Z,99678.38
2022-12-29T04:20:23.372Z,99673.06
2022-12-29T04:22:50.810Z,99672.25
2022-12-29T04:25:17.699Z,99666.03
2022-12-29T04:27:45.286Z,99651.88
2022-12-29T04:30:12.486Z,99648.44
2022-12-29T04:32:39.254Z,99645.94
2022-12-29T04:35:06.646Z,99631.00
2022-12-29T04:37:33.249Z,99632.72
2022-12-29T04:40:00.714Z,99645.94
2022-12-29T04:42:27.737Z,99653.06
2022-12-29T04:44:54.319Z,99660.06
2022-12-29T04:47:20.994Z,99665.31
2022-12-29T04:49:47.737Z,99649.41
2022-12-29T04:52:14.417Z,99645.19
2022-12-29T04:54:41.056Z,99655.56
2022-12-29T04:57:07.690Z,99648.63
2022-12-29T04:59:34.308Z,99636.53
2022-12-29T05:02:01.060Z,99638.00
2022-12-29T05:04:27.807Z,99638.09
2022-12-29T05:06:54.376Z,99636.81
2022-12-29T05:09:21.424Z,99631.84
2022-12-29T05:11:48.283Z,99625.88
2022-12-29T05:14:15.078Z,99635.38
2022-12-29T05:16:41.735Z,99625.63
2022-12-29T05:19:08.339Z,99629.06
2022-12-29T05:21:34.954Z,99621.47
2022-12-29T05:24:02.817Z,99630.06
2022-12-29T05:26:29.589Z,99616.72
2022-12-29T05:28:59.244Z,99607.06
2022-12-29T05:31:25.896Z,99605.06
2022-12-29T05:33:52.585Z,99602.44
2022-12-29T05:36:19.301Z,99593.69
2022-12-29T05:38:45.954Z,99591.66
2022-12-29T05:41:12.635Z,99585.22
2022-12-29T05:43:39.240Z,99580.69
2022-12-29T05:46:05.848Z,99588.47
2022-12-29T05:48:37.706Z,99595.50
2022-12-29T05:51:05.000Z,99598.88
2022-12-29T05:53:34.331Z,99591.78
2022-12-29T05:56:00.897Z,99597.72
2022-12-29T05:58:27.755Z,99581.09
2022-12-29T06:00:54.407Z,99580.19
2022-12-29T06:03:23.278Z,99588.63
2022-12-29T06:05:50.211Z,99589.31
2022-12-29T06:08:16.913Z,99590.22
2022-12-29T06:10:43.520Z,99597.81
2022-12-29T06:13:10.388Z,99588.25
2022-12-29T06:15:37.197Z,99585.56
2022-12-29T06:18:04.823Z,99593.22
2022-12-29T06:20:31.724Z,99591.34
2022-12-29T06:22:58.361Z,99590.47
2022-12-29T06:25:27.543Z,99580.72
2022-12-29T06:27:54.171Z,99583.41
2022-12-29T06:30:20.793Z,99589.81
2022-12-29T06:32:48.142Z,99590.63
2022-12-29T06:35:14.919Z,99594.03
2022-12-29T06:37:41.601Z,99598.38
2022-12-29T06:40:08.665Z,99590.88
2022-12-29T06:42:35.344Z,99597.75
2022-12-29T06:45:02.385Z,99589.09
2022-12-29T06:47:29.160Z,99586.47
2022-12-29T06:49:56.172Z,99583.47
2022-12-29T06:52:25.053Z,99574.59
2022-12-29T06:54:51.935Z,99576.38
2022-12-29T06:57:18.918Z,99579.00
2022-12-29T06:59:45.516Z,99581.00
2022-12-29T07:02:14.404Z,99573.72
2022-12-29T07:04:41.247Z,99579.75
2022-12-29T07:07:08.232Z,99577.25
2022-12-29T07:09:34.984Z,99591.25
2022-12-29T07:12:01.805Z,99582.06
2022-12-29T07:14:28.458Z,99588.13
2022-12-29T07:16:55.501Z,99578.56
2022-12-29T07:19:22.202Z,99581.31
2022-12-29T07:21:48.931Z,99586.88
2022-12-29T07:24:17.958Z,99580.56
2022-12-29T07:26:44.653Z,99583.88
2022-12-29T07:29:11.334Z,99579.69
2022-12-29T07:31:38.081Z,99575.28
2022-12-29T07:34:04.763Z,99570.78
2022-12-29T07:36:34.604Z,99576.03
2022-12-29T07:39:01.977Z,99583.28
2022-12-29T07:41:28.595Z,99586.75
2022-12-29T07:43:55.339Z,99579.31
2022-12-29T07:46:54.518Z,99579.25
2022-12-29T07:49:08.731Z,99583.03
2022-12-29T07:51:35.387Z,99575.59
2022-12-29T07:54:02.201Z,99567.81
2022-12-29T07:56:28.902Z,99564.28
2022-12-29T07:58:57.773Z,99559.97
2022-12-29T08:01:24.783Z,99563.41
2022-12-29T08:03:57.123Z,99568.66
2022-12-29T08:06:24.296Z,99573.06
2022-12-29T08:08:50.963Z,99570.09
2022-12-29T08:11:17.601Z,99575.22
2022-12-29T08:13:44.243Z,99571.38
2022-12-29T08:16:10.874Z,99581.16
2022-12-29T08:18:37.626Z,99579.25
2022-12-29T08:21:05.173Z,99564.84
2022-12-29T08:23:31.877Z,99572.69
2022-12-29T08:26:03.580Z,99582.06
2022-12-29T08:28:30.981Z,99577.44
2022-12-29T08:31:02.077Z,99586.16
2022-12-29T08:33:29.433Z,99572.88
2022-12-29T08:36:04.248Z,99582.38
2022-12-29T08:38:31.653Z,99576.25
2022-12-29T08:40:59.301Z,99585.72
2022-12-29T08:43:26.403Z,99589.69
2022-12-29T08:45:53.266Z,99587.66
2022-12-29T08:48:20.733Z,99573.38
2022-12-29T08:50:47.573Z,99568.78
2022-12-29T08:53:14.271Z,99565.00
2022-12-29T08:55:40.956Z,99569.09
2022-12-29T08:58:07.616Z,99558.63
2022-12-29T09:00:34.238Z,99565.22
2022-12-29T09:03:00.998Z,99559.88
2022-12-29T09:05:27.738Z,99564.16
2022-12-29T09:07:54.394Z,99566.63
2022-12-29T09:10:21.043Z,99560.53
2022-12-29T09:12:47.820Z,99545.50
2022-12-29T09:15:16.568Z,99550.78
2022-12-29T09:17:46.457Z,99547.25
2022-12-29T09:20:14.894Z,99535.88
2022-12-29T09:22:41.748Z,99527.03
2022-12-29T09:25:10.175Z,99554.34
2022-12-29T09:27:37.487Z,99540.34
2022-12-29T09:30:06.698Z,99548.16
2022-12-29T09:32:34.713Z,99546.50
2022-12-29T09:35:02.980Z,99538.47
2022-12-29T09:37:29.610Z,99535.44
2022-12-29T09:39:56.236Z,99549.31
2022-12-29T09:42:31.041Z,99537.75
2022-12-29T09:45:36.538Z,99545.47
2022-12-29T09:48:09.631Z,99530.44
2022-12-29T09:50:38.244Z,99546.91
2022-12-29T09:53:28.858Z,99537.44
2022-12-29T09:55:57.907Z,99541.63
2022-12-29T09:58:42.038Z,99536.06
2022-12-29T10:01:45.407Z,99529.88
2022-12-29T10:04:12.199Z,99533.25
2022-12-29T10:07:28.102Z,99531.38
2022-12-29T10:09:51.040Z,99542.66
2022-12-29T10:12:28.655Z,99533.88
2022-12-29T10:14:58.412Z,99535.16
2022-12-29T10:17:42.850Z,99537.09
2022-12-29T10:20:28.879Z,99536.38
2022-12-29T10:23:15.435Z,99539.16
2022-12-29T10:25:43.942Z,99540.06
2022-12-29T10:28:21.994Z,99544.78
2022-12-29T10:30:50.109Z,99539.44
2022-12-29T10:33:21.714Z,99543.81
2022-12-29T10:35:48.708Z,99538.72
2022-12-29T10:38:34.348Z,99543.88
2022-12-29T10:41:06.937Z,99540.19
2022-12-29T10:43:45.934Z,99545.22
2022-12-29T10:46:15.607Z,99554.66
2022-12-29T10:48:46.228Z,99549.50
2022-12-29T10:51:36.937Z,99548.78
2022-12-29T10:54:13.696Z,99538.38
2022-12-29T10:56:45.455Z,99535.66
2022-12-29T10:59:23.943Z,99524.50
2022-12-29T11:02:05.858Z,99534.88
2022-12-29T11:04:51.469Z,99537.25
2022-12-29T11:07:25.075Z,99540.44
2022-12-29T11:09:53.784Z,99544.91
2022-12-29T11:12:22.029Z,99529.41
2022-12-29T11:14:49.227Z,99537.44
2022-12-29T11:17:18.212Z,99535.03
2022-12-29T11:19:44.893Z,99544.50
2022-12-29T11:22:23.001Z,99524.16
2022-12-29T11:24:51.866Z,99541.81
2022-12-29T11:27:23.672Z,99537.34
2022-12-29T11:29:52.158Z,99547.94
2022-12-29T11:32:28.799Z,99543.47
2022-12-29T11:34:58.414Z,99538.13
2022-12-29T11:37:39.864Z,99545.75
2022-12-29T11:40:17.156Z,99552.03
2022-12-29T11:42:49.834Z,99553.34
2022-12-29T11:45:28.065Z,99559.97
2022-12-29T11:48:17.276Z,99568.63
2022-12-29T11:50:50.646Z,99564.22
2022-12-29T11:53:38.568Z,99567.50
2022-12-29T11:56:08.584Z,99570.03
2022-12-29T11:58:37.545Z,99571.47
2022-12-29T12:01:13.185Z,99558.63
2022-12-29T12:03:47.907Z,99572.00
2022-12-29T12:06:17.994Z,99571.94
2022-12-29T12:08:56.634Z,99557.22
2022-12-29T12:11:29.491Z,99575.94
2022-12-29T12:14:01.895Z,99585.44
2022-12-29T12:16:34.191Z,99583.03
2022-12-29T12:19:04.015Z,99587.78
2022-12-29T12:21:34.168Z,99589.94
2022-12-29T12:24:34.854Z,99590.06
2022-12-29T12:27:21.827Z,99579.75
2022-12-29T12:29:53.942Z,99573.88
2022-12-29T12:32:45.562Z,99571.84
2022-12-29T12:35:19.759Z,99602.53
2022-12-29T12:37:53.518Z,99594.78
2022-12-29T12:40:36.620Z,99596.03
2022-12-29T12:43:21.360Z,99587.91
2022-12-29T12:46:25.611Z,99581.38
2022-12-29T12:49:27.793Z,99585.50
2022-12-29T12:52:13.106Z,99579.16
2022-12-29T12:55:05.701Z,99572.72
2022-12-29T12:57:38.424Z,99569.94
2022-12-29T13:00:10.298Z,99590.13
2022-12-29T13:02:57.150Z,99586.78
2022-12-29T13:05:34.178Z,99585.00
2022-12-29T13:08:04.283Z,99583.19
2022-12-29T13:10:40.292Z,99583.94
2022-12-29T13:13:42.157Z,99587.38
2022-12-29T13:16:22.128Z,99587.44
2022-12-29T13:19:14.897Z,99583.69
2022-12-29T13:22:08.439Z,99590.84
2022-12-29T13:24:48.135Z,99584.75
2022-12-29T13:27:30.707Z,99598.94
2022-12-29T13:30:10.479Z,99602.88
2022-12-29T13:32:50.874Z,99600.91
2022-12-29T13:35:34.114Z,99610.59
2022-12-29T13:38:26.691Z,99612.50
2022-12-29T13:40:56.811Z,99621.97
2022-12-29T13:43:24.749Z,99622.78
2022-12-29T13:45:58.979Z,99631.25
2022-12-29T13:48:30.022Z,99643.53
2022-12-29T13:50:59.652Z,99642.84
2022-12-29T13:53:42.249Z,99646.09
2022-12-29T13:56:13.967Z,99651.66
2022-12-29T13:59:11.705Z,99655.66
2022-12-29T14:01:47.139Z,99651.66
2022-12-29T14:04:15.658Z,99652.56
2022-12-29T14:06:43.337Z,99666.56
2022-12-29T14:09:41.435Z,99646.50
2022-12-29T14:12:37.325Z,99652.13
2022-12-29T14:15:10.003Z,99646.22
2022-12-29T14:17:37.142Z,99641.97
2022-12-29T14:20:05.051Z,99654.31
2022-12-29T14:22:33.514Z,99642.38
2022-12-29T14:25:01.066Z,99646.91
2022-12-29T14:27:30.784Z,99652.31
2022-12-29T14:29:57.665Z,99658.63
2022-12-29T14:32:27.209Z,99665.06
2022-12-29T14:34:58.541Z,99664.50
2022-12-29T14:37:26.915Z,99661.44
2022-12-29T14:40:04.350Z,99658.16
2022-12-29T14:42:32.085Z,99670.63
2022-12-29T14:45:29.156Z,99672.34
2022-12-29T14:47:56.392Z,99670.72
2022-12-29T14:50:26.938Z,99674.25
2022-12-29T14:53:04.401Z,99676.13
2022-12-29T14:55:48.328Z,99679.72
2022-12-29T14:58:18.603Z,99677.94
2022-12-29T15:00:46.573Z,99679.81
2022-12-29T15:03:22.386Z,99691.28
2022-12-29T15:06:12.542Z,99686.41
2022-12-29T15:09:05.003Z,99679.28
2022-12-29T15:11:37.757Z,99682.91
2022-12-29T15:14:04.500Z,99694.56
2022-12-29T15:16:33.901Z,99696.09
2022-12-29T15:19:01.000Z,99693.44
2022-12-29T15:21:33.384Z,99699.81
2022-12-29T15:24:00.629Z,99700.00
2022-12-29T15:26:42.466Z,99707.63
2022-12-29T15:29:37.391Z,99705.91
2022-12-29T15:32:16.346Z,99705.78
2022-12-29T15:34:47.910Z,99712.97
2022-12-29T15:37:26.608Z,99711.47
2022-12-29T15:39:54.724Z,99711.47
2022-12-29T15:42:33.392Z,99727.06
2022-12-29T15:45:10.181Z,99721.91
2022-12-29T15:47:38.245Z,99720.00
2022-12-29T15:50:07.399Z,99732.00
2022-12-29T15:52:34.634Z,99728.75
2022-12-29T15:55:02.347Z,99734.97
2022-12-29T15:57:33.393Z,99733.88
2022-12-29T16:00:01.138Z,99738.50
2022-12-29T16:02:28.935Z,99752.44
2022-12-29T16:07:53.160Z,99758.34
2022-12-29T16:10:27.521Z,99764.47
2022-12-29T16:12:54.161Z,99760.00
2022-12-29T16:15:20.835Z,99753.66
2022-12-29T16:17:53.361Z,99759.03
2022-12-29T16:20:23.213Z,99758.03
2022-12-29T16:22:51.985Z,99758.13
2022-12-29T16:25:25.761Z,99767.38
2022-12-29T16:27:53.425Z,99758.63
2022-12-29T16:30:24.254Z,99762.13
2022-12-29T16:32:59.589Z,99763.25
2022-12-29T16:35:39.163Z,99777.91
2022-12-29T16:38:23.754Z,99775.06
2022-12-29T16:40:55.132Z,99770.59
2022-12-29T16:43:35.918Z,99773.28
2022-12-29T16:46:02.542Z,99777.69
2022-12-29T16:48:52.515Z,99766.97
2022-12-29T16:51:41.238Z,99770.22
2022-12-29T16:54:21.569Z,99773.03
2022-12-29T16:56:48.769Z,99779.16
2022-12-29T16:59:36.619Z,99782.66
2022-12-29T17:02:08.722Z,99782.59
2022-12-29T17:04:35.576Z,99785.16
2022-12-29T17:07:02.415Z,99779.13
2022-12-29T17:09:29.782Z,99784.25
2022-12-29T17:12:05.304Z,99788.44
2022-12-29T17:14:44.162Z,99784.03
2022-12-29T17:17:18.873Z,99786.66
2022-12-29T17:19:49.555Z,99780.59
2022-12-29T17:22:19.485Z,99777.03
2022-12-29T17:24:46.345Z,99779.88
2022-12-29T17:27:28.775Z,99786.84
2022-12-29T17:29:59.026Z,99783.22
2022-12-29T17:32:25.861Z,99781.41
2022-12-29T17:34:52.693Z,99785.50
2022-12-29T17:37:25.435Z,99790.06
2022-12-29T17:39:52.513Z,99796.00
2022-12-29T17:42:20.244Z,99794.88
2022-12-29T17:44:47.224Z,99789.81
2022-12-29T17:47:15.862Z,99793.00
2022-12-29T17:49:46.376Z,99799.19
2022-12-29T17:52:14.347Z,99806.19
2022-12-29T17:54:52.306Z,99807.16
2022-12-29T17:57:20.030Z,99796.66
2022-12-29T17:59:46.931Z,99798.63
2022-12-29T18:02:30.727Z,99807.53
2022-12-29T18:04:58.829Z,99805.63
2022-12-29T18:07:35.427Z,99802.88
2022-12-29T18:10:03.423Z,99805.72
2022-12-29T18:12:35.355Z,99795.81
2022-12-29T18:15:02.120Z,99802.78
2022-12-29T18:17:28.870Z,99805.38
2022-12-29T18:19:56.507Z,99806.19
2022-12-29T18:22:24.377Z,99807.81
2022-12-29T18:24:51.435Z,99807.50
2022-12-29T18:27:19.699Z,99805.69
2022-12-29T18:29:46.857Z,99808.69
2022-12-29T18:32:13.699Z,99813.94
2022-12-29T18:34:41.601Z,99806.78
2022-12-29T18:37:09.554Z,99818.25
2022-12-29T18:39:37.215Z,99823.59
2022-12-29T18:42:05.176Z,99820.22
2022-12-29T18:44:31.909Z,99829.78
2022-12-29T18:46:58.819Z,99831.75
2022-12-29T18:49:25.565Z,99827.25
2022-12-29T18:51:52.223Z,99826.38
2022-12-29T18:54:29.915Z,99829.00
2022-12-29T18:56:56.954Z,99830.88
2022-12-29T18:59:24.115Z,99837.06
2022-12-29T19:01:51.415Z,99841.75
2022-12-29T19:04:18.543Z,99836.41
2022-12-29T19:06:45.780Z,99841.81
2022-12-29T19:09:12.426Z,99840.22
2022-12-29T19:11:39.128Z,99844.84
2022-12-29T19:14:05.932Z,99852.72
2022-12-29T19:16:33.073Z,99853.56
2022-12-29T19:19:09.336Z,99849.16
2022-12-29T19:21:37.247Z,99850.16
2022-12-29T19:24:04.098Z,99846.53
2022-12-29T19:26:34.696Z,99847.69
2022-12-29T19:29:01.801Z,99849.97
2022-12-29T19:31:28.764Z,99858.88
2022-12-29T19:33:55.632Z,99859.94
2022-12-29T19:36:23.896Z,99854.66
2022-12-29T19:38:50.666Z,99865.50
2022-12-29T19:41:17.455Z,99868.91
2022-12-29T19:43:44.471Z,99865.28
2022-12-29T19:46:15.261Z,99875.16
2022-12-29T19:48:41.959Z,99875.38
2022-12-29T19:51:11.469Z,99871.69
2022-12-29T19:53:38.147Z,99880.63
2022-12-29T19:56:06.917Z,99880.66
2022-12-29T19:58:34.980Z,99885.16
2022-12-29T20:01:14.388Z,99887.00
2022-12-29T20:03:42.457Z,99884.16
2022-12-29T20:06:10.456Z,99883.50
2022-12-29T20:08:38.100Z,99884.56
2022-12-29T20:11:13.144Z,99890.00
2022-12-29T20:13:40.389Z,99895.13
2022-12-29T20:16:10.827Z,99895.38
2022-12-29T20:18:37.572Z,99892.22
2022-12-29T20:21:06.042Z,99904.13
2022-12-29T20:23:33.540Z,99906.13
2022-12-29T20:26:01.085Z,99899.91
2022-12-29T20:28:29.148Z,99903.38
2022-12-29T20:31:01.909Z,99908.50
2022-12-29T20:33:29.110Z,99908.75
2022-12-29T20:36:04.481Z,99905.97
2022-12-29T20:38:31.163Z,99911.94
2022-12-29T20:40:57.780Z,99905.84
2022-12-29T20:43:24.489Z,99909.44
2022-12-29T20:45:51.227Z,99907.94
2022-12-29T20:48:17.993Z,99900.78
2022-12-29T20:50:44.707Z,99918.13
2022-12-29T20:53:11.795Z,99916.69
2022-12-29T20:55:41.167Z,99913.97
2022-12-29T20:58:24.674Z,99915.78
2022-12-29T21:00:51.813Z,99909.94
2022-12-29T21:03:18.736Z,99914.38
2022-12-29T21:05:46.308Z,99908.44
2022-12-29T21:08:13.018Z,99916.31
2022-12-29T21:10:39.758Z,99903.34
2022-12-29T21:13:06.470Z,99902.63
2022-12-29T21:15:33.303Z,99896.63
2022-12-29T21:18:00.025Z,99900.19
2022-12-29T21:20:32.639Z,99889.59
2022-12-29T21:23:01.167Z,99887.69
2022-12-29T21:25:38.633Z,99890.50
2022-12-29T21:28:06.668Z,99888.75
2022-12-29T21:30:34.055Z,99887.84
2022-12-29T21:33:01.009Z,99886.16
2022-12-29T21:35:28.077Z,99888.88
2022-12-29T21:37:54.744Z,99900.34
2022-12-29T21:40:24.305Z,99901.28
2022-12-29T21:42:50.995Z,99909.06
2022-12-29T21:45:27.543Z,99915.13
2022-12-29T21:48:14.544Z,99916.94
2022-12-29T21:51:01.145Z,99918.66
2022-12-29T21:53:40.539Z,99914.09
2022-12-29T21:56:18.160Z,99910.66
2022-12-29T21:59:06.119Z,99912.31
2022-12-29T22:01:54.123Z,99920.00
2022-12-29T22:04:41.518Z,99921.69
2022-12-29T22:07:29.088Z,99924.25
2022-12-29T22:10:14.407Z,99919.81
2022-12-29T22:12:59.765Z,99924.84
2022-12-29T22:15:28.573Z,99929.19
2022-12-29T22:17:55.786Z,99925.63
2022-12-29T22:20:27.281Z,99926.59
2022-12-29T22:22:54.361Z,99933.63
2022-12-29T22:25:21.896Z,99941.34
2022-12-29T22:27:55.647Z,99930.63
2022-12-29T22:30:26.985Z,99935.88
2022-12-29T22:32:53.606Z,99944.69
2022-12-29T22:35:20.243Z,99941.81
2022-12-29T22:37:46.872Z,99946.97
2022-12-29T22:40:14.334Z,99951.88
2022-12-29T22:42:40.907Z,99960.75
2022-12-29T22:45:08.595Z,99977.31
2022-12-29T22:47:35.608Z,99988.19
2022-12-29T22:50:02.739Z,99956.47
2022-12-29T22:52:29.564Z,99949.44
2022-12-29T22:55:00.194Z,99960.03
2022-12-29T22:57:31.118Z,99962.81
2022-12-29T22:59:58.146Z,99970.94
2022-12-29T23:02:25.372Z,99967.41
2022-12-29T23:05:08.707Z,99971.16
2022-12-29T23:07:36.199Z,99972.97
2022-12-29T23:10:04.653Z,99967.00
2022-12-29T23:12:31.604Z,99973.28
2022-12-29T23:14:58.491Z,99977.81
2022-12-29T23:17:25.403Z,99982.28
2022-12-29T23:19:53.209Z,99979.75
2022-12-29T23:22:20.124Z,99988.50
2022-12-29T23:24:47.005Z,99994.66
2022-12-29T23:27:13.966Z,99987.66
2022-12-29T23:29:40.631Z,99981.56
2022-12-29T23:32:07.333Z,99978.84
2022-12-29T23:34:34.017Z,99982.91
2022-12-29T23:37:02.820Z,99981.22
2022-12-29T23:39:29.573Z,99983.78
2022-12-29T23:41:57.202Z,99974.81
2022-12-29T23:44:24.174Z,99972.34
2022-12-29T23:46:50.958Z,99973.03
2022-12-29T23:49:17.690Z,99967.75
2022-12-29T23:51:44.385Z,99973.19
2022-12-29T23:54:11.108Z,99976.63
2022-12-29T23:56:37.668Z,99978.31
2022-12-29T23:59:05.761Z,99981.66
